Time;durP1;ratioP1;P1;durP2;ratioP2;P2;SDS_P1;SDS_P2;PMS_P1;PMS_P2;Temp;Humidity;BMP_temperature;BMP_pressure;BME280_temperature;BME280_humidity;BME280_pressure;Samples;Min_cycle;Max_cycle;Signal;HPM_P1;HPM_P2
2023/10/10 00:02:19;;;;;;;5.07;2.70;;;17.80;92.00;;;;;;4957133;29;20030;-83
2023/10/10 00:04:54;;;;;;;5.13;2.65;;;17.80;92.00;;;;;;4939928;29;20083;-84
2023/10/10 00:07:19;;;;;;;4.90;2.40;;;17.80;92.10;;;;;;4939847;29;20024;-84
2023/10/10 00:09:45;;;;;;;4.68;2.50;;;17.80;92.00;;;;;;4940094;29;20038;-84
2023/10/10 00:12:36;;;;;;;4.00;2.40;;;17.80;92.00;;;;;;4940135;29;20513;-84
2023/10/10 00:15:13;;;;;;;3.88;2.10;;;17.80;92.00;;;;;;4939763;29;20027;-84
2023/10/10 00:17:41;;;;;;;3.85;2.30;;;17.80;92.00;;;;;;4939557;29;20489;-84
2023/10/10 00:20:22;;;;;;;4.18;2.40;;;17.80;92.00;;;;;;4939935;29;20541;-84
2023/10/10 00:22:49;;;;;;;4.38;2.33;;;17.80;92.00;;;;;;4939658;29;20468;-84
2023/10/10 00:25:17;;;;;;;3.75;2.10;;;17.90;92.00;;;;;;4938666;29;20024;-84
2023/10/10 00:27:54;;;;;;;5.22;2.50;;;17.90;91.90;;;;;;4956770;29;20031;-84
2023/10/10 00:30:22;;;;;;;3.78;2.15;;;17.90;91.90;;;;;;4939621;29;20020;-84
2023/10/10 00:32:50;;;;;;;4.25;2.40;;;17.90;91.90;;;;;;4939442;29;20027;-84
2023/10/10 00:35:17;;;;;;;4.53;2.33;;;17.90;92.00;;;;;;4939682;29;20050;-84
2023/10/10 00:37:44;;;;;;;4.75;2.15;;;17.90;92.00;;;;;;4939383;29;20086;-84
2023/10/10 00:40:15;;;;;;;4.53;2.25;;;17.90;92.00;;;;;;4956343;29;20019;-84
2023/10/10 00:42:41;;;;;;;4.07;2.10;;;17.80;92.00;;;;;;4939126;29;20046;-84
2023/10/10 00:45:12;;;;;;;3.85;2.15;;;17.80;92.00;;;;;;4956524;29;20027;-84
2023/10/10 00:47:49;;;;;;;4.00;2.40;;;17.90;92.00;;;;;;4956503;29;20024;-85
2023/10/10 00:50:18;;;;;;;4.03;2.20;;;17.80;92.00;;;;;;4939365;29;20032;-84
2023/10/10 00:52:46;;;;;;;3.95;2.10;;;17.80;92.00;;;;;;4938874;29;20034;-84
2023/10/10 00:55:12;;;;;;;3.88;2.28;;;17.80;92.00;;;;;;4939170;29;20031;-84
2023/10/10 00:57:38;;;;;;;4.38;2.47;;;17.80;92.00;;;;;;4938840;29;20028;-84
2023/10/10 01:00:09;;;;;;;3.97;2.22;;;17.80;92.00;;;;;;4938903;29;20019;-84
2023/10/10 01:02:37;;;;;;;5.18;2.40;;;17.80;92.00;;;;;;4938715;29;20027;-85
2023/10/10 01:05:13;;;;;;;4.35;2.30;;;17.80;92.00;;;;;;4938839;29;20039;-84
2023/10/10 01:07:40;;;;;;;3.88;2.10;;;17.80;92.00;;;;;;4938942;29;20082;-84
2023/10/10 01:10:12;;;;;;;3.72;2.22;;;17.80;92.00;;;;;;4938852;29;20449;-84
2023/10/10 01:12:40;;;;;;;5.47;2.28;;;17.80;92.00;;;;;;4938581;29;20027;-84
2023/10/10 01:15:25;;;;;;;3.72;2.03;;;17.80;92.00;;;;;;4955819;29;20370;-84
2023/10/10 01:17:51;;;;;;;3.58;2.15;;;17.80;92.10;;;;;;4938683;29;20035;-84
2023/10/10 01:20:18;;;;;;;4.15;2.10;;;17.80;92.00;;;;;;4955579;29;20426;-84
2023/10/10 01:22:47;;;;;;;4.00;2.20;;;17.80;92.00;;;;;;4938385;29;20030;-84
2023/10/10 01:25:41;;;;;;;4.55;2.30;;;17.80;92.00;;;;;;4938604;29;20486;-84
2023/10/10 01:35:59;;;;;;;4.15;2.20;;;17.90;91.90;;;;;;4955680;28;20035;-84
2023/10/10 01:38:41;;;;;;;4.32;2.10;;;17.90;92.10;;;;;;4955353;29;20027;-84
2023/10/10 01:41:15;;;;;;;4.25;2.20;;;17.90;92.10;;;;;;4955452;29;20023;-84
2023/10/10 01:43:46;;;;;;;5.35;2.10;;;17.80;92.10;;;;;;4938369;29;20056;-84
2023/10/10 01:46:27;;;;;;;4.13;2.10;;;17.80;92.00;;;;;;4955515;29;20043;-84
2023/10/10 01:48:54;;;;;;;4.50;2.22;;;17.80;92.00;;;;;;4938269;29;20039;-84
2023/10/10 01:51:19;;;;;;;4.90;2.40;;;17.80;92.00;;;;;;4955138;29;20019;-84
2023/10/10 01:53:45;;;;;;;4.70;2.20;;;17.80;92.00;;;;;;4937829;29;20054;-84
2023/10/10 01:56:14;;;;;;;5.10;2.25;;;17.80;92.00;;;;;;4937994;29;20055;-84
2023/10/10 01:58:41;;;;;;;5.03;2.25;;;17.80;92.00;;;;;;4937952;29;20028;-84
2023/10/10 02:01:14;;;;;;;3.78;2.00;;;17.80;92.00;;;;;;4938066;29;20397;-84
2023/10/10 02:03:40;;;;;;;4.78;2.38;;;17.80;92.00;;;;;;4954819;29;20019;-85
2023/10/10 02:06:13;;;;;;;3.85;2.20;;;17.80;92.10;;;;;;4937846;29;20409;-84
2023/10/10 02:08:40;;;;;;;4.45;2.22;;;17.80;92.10;;;;;;4937968;29;20023;-84
2023/10/10 02:11:08;;;;;;;4.03;2.28;;;17.80;92.10;;;;;;4955094;29;20038;-84
2023/10/10 02:13:39;;;;;;;4.18;2.30;;;17.80;92.10;;;;;;4954630;29;20490;-84
2023/10/10 02:16:06;;;;;;;3.93;2.20;;;17.80;92.10;;;;;;4937658;29;20065;-84
2023/10/10 02:18:44;;;;;;;4.10;2.20;;;17.80;92.10;;;;;;4937506;29;20306;-84
2023/10/10 02:21:16;;;;;;;3.30;2.03;;;17.80;92.10;;;;;;4937678;29;20027;-84
2023/10/10 02:23:46;;;;;;;3.50;2.10;;;17.80;92.10;;;;;;4937330;29;20023;-84
2023/10/10 02:26:35;;;;;;;4.18;2.00;;;17.80;92.00;;;;;;4954741;29;20046;-84
2023/10/10 02:29:17;;;;;;;4.00;2.30;;;17.80;92.00;;;;;;4937446;29;20106;-84
2023/10/10 02:31:48;;;;;;;2.95;1.73;;;17.80;92.00;;;;;;4954599;29;20047;-84
2023/10/10 02:34:13;;;;;;;4.30;2.00;;;17.90;91.90;;;;;;4937167;29;20465;-84
2023/10/10 02:36:41;;;;;;;3.63;1.85;;;17.90;91.90;;;;;;4937444;29;20070;-84
2023/10/10 02:41:48;;;;;;;3.75;2.10;;;17.80;92.00;;;;;;4955000;29;20027;-84
2023/10/10 02:44:38;;;;;;;3.38;1.90;;;17.80;92.00;;;;;;4954405;29;20493;-84
2023/10/10 02:47:00;;;;;;;4.65;2.20;;;17.80;92.00;;;;;;4955040;28;20023;-84
2023/10/10 02:51:55;;;;;;;4.07;2.05;;;17.80;92.00;;;;;;4958751;29;20366;-84
2023/10/10 02:56:51;;;;;;;3.40;2.00;;;17.80;92.00;;;;;;4958449;29;20035;-84
2023/10/10 02:59:22;;;;;;;4.03;1.90;;;17.80;92.00;;;;;;4966858;28;20049;-84
2023/10/10 03:04:22;;;;;;;4.22;2.10;;;17.80;92.10;;;;;;4977523;28;19906;-84
2023/10/10 03:06:48;;;;;;;3.25;1.80;;;17.80;92.10;;;;;;4960124;28;20023;-84
2023/10/10 03:09:38;;;;;;;3.53;1.85;;;17.80;92.10;;;;;;4959975;28;20046;-84
2023/10/10 03:12:05;;;;;;;3.25;1.92;;;17.80;92.10;;;;;;4977164;28;20397;-84
2023/10/10 03:14:34;;;;;;;;;;;17.80;92.10;;;;;;4960372;28;20482;-84
2023/10/10 03:17:05;;;;;;;3.58;1.92;;;17.80;92.10;;;;;;4959660;28;19906;-84
2023/10/10 03:19:38;;;;;;;3.40;1.80;;;17.80;92.10;;;;;;4977327;28;20481;-85
2023/10/10 03:25:07;;;;;;;3.97;2.10;;;17.80;92.10;;;;;;4977274;28;20066;-84
2023/10/10 03:27:54;;;;;;;3.15;1.90;;;17.80;92.10;;;;;;4959678;28;20038;-84
2023/10/10 03:30:34;;;;;;;2.50;1.60;;;17.80;92.00;;;;;;4959564;28;20023;-84
2023/10/10 03:33:08;;;;;;;3.85;1.70;;;18.00;92.00;;;;;;4959456;28;20027;-84
2023/10/10 03:35:52;;;;;;;3.70;1.70;;;17.80;92.00;;;;;;4959597;28;20109;-84
2023/10/10 05:25:22;;;;;;;2.95;1.80;;;17.70;92.10;;;;;;4974291;28;20045;-83
2023/10/10 05:27:51;;;;;;;3.03;1.67;;;17.80;92.20;;;;;;4956039;28;20035;-83
2023/10/10 05:30:24;;;;;;;2.83;1.60;;;17.80;92.10;;;;;;4956276;28;20066;-84
2023/10/10 05:33:03;;;;;;;3.13;1.90;;;17.80;92.20;;;;;;4973893;28;20103;-84
2023/10/10 05:35:34;;;;;;;3.38;1.65;;;17.80;92.10;;;;;;4956552;28;20030;-84
2023/10/10 05:38:00;;;;;;;4.07;1.50;;;17.80;92.10;;;;;;4958310;28;20035;-84
2023/10/10 05:40:26;;;;;;;2.88;1.70;;;17.80;92.30;;;;;;4974866;28;20044;-84
2023/10/10 05:42:52;;;;;;;4.25;2.05;;;17.90;92.10;;;;;;4974297;28;20027;-85
2023/10/10 05:45:21;;;;;;;4.45;2.10;;;17.80;92.20;;;;;;4937806;29;20031;-84
2023/10/10 05:47:47;;;;;;;3.35;1.80;;;17.80;92.20;;;;;;4955094;29;20706;-84
2023/10/10 05:50:13;;;;;;;3.47;1.67;;;17.80;92.20;;;;;;4937795;29;20027;-84
2023/10/10 05:52:43;;;;;;;4.20;2.20;;;17.80;92.20;;;;;;4936950;29;20497;-84
2023/10/10 05:55:12;;;;;;;4.50;2.45;;;17.80;92.20;;;;;;4954931;29;20034;-84
2023/10/10 05:57:39;;;;;;;3.55;1.92;;;17.80;92.20;;;;;;4937559;29;20513;-85
2023/10/10 06:00:10;;;;;;;4.88;2.17;;;17.80;92.20;;;;;;4937717;29;20024;-83
2023/10/10 06:02:45;;;;;;;3.00;1.80;;;17.80;92.20;;;;;;4937443;29;20509;-84
2023/10/10 06:05:12;;;;;;;5.20;2.05;;;17.80;92.10;;;;;;4937683;29;20042;-84
2023/10/10 06:07:44;;;;;;;4.00;2.22;;;17.80;92.20;;;;;;4937698;29;20074;-84
2023/10/10 06:10:17;;;;;;;3.55;2.05;;;17.70;92.20;;;;;;4937927;29;20033;-84
2023/10/10 06:12:45;;;;;;;4.22;2.10;;;17.80;92.20;;;;;;4954688;29;20079;-84
2023/10/10 06:15:11;;;;;;;4.13;2.15;;;17.80;92.20;;;;;;4937598;29;20424;-84
2023/10/10 06:17:38;;;;;;;3.20;1.90;;;17.80;92.20;;;;;;4937587;29;20050;-84
2023/10/10 06:20:08;;;;;;;3.15;1.90;;;17.70;92.20;;;;;;4937557;29;20400;-84
2023/10/10 06:22:33;;;;;;;4.05;2.10;;;17.70;92.20;;;;;;4936530;29;20029;-84
2023/10/10 06:24:59;;;;;;;4.13;2.47;;;17.70;92.20;;;;;;4937485;29;20058;-84
2023/10/10 06:27:36;;;;;;;3.65;2.03;;;17.70;92.20;;;;;;4937391;29;20102;-84
2023/10/10 06:30:04;;;;;;;4.05;2.10;;;17.70;92.20;;;;;;4937453;29;20090;-84
2023/10/10 06:32:31;;;;;;;3.55;2.17;;;17.80;92.20;;;;;;4954265;29;20102;-84
2023/10/10 06:37:43;;;;;;;5.15;2.58;;;17.80;92.10;;;;;;4954407;29;20031;-84
2023/10/10 06:40:10;;;;;;;4.07;2.20;;;17.80;92.10;;;;;;4937443;29;20389;-84
2023/10/10 06:42:36;;;;;;;4.15;2.10;;;17.80;92.00;;;;;;4937054;29;20408;-84
2023/10/10 06:45:07;;;;;;;4.03;2.30;;;17.80;92.00;;;;;;4937222;29;20122;-84
2023/10/10 06:47:34;;;;;;;5.72;2.83;;;17.80;92.20;;;;;;4937199;29;20469;-84
2023/10/10 06:50:01;;;;;;;4.18;2.42;;;17.80;92.10;;;;;;4937130;29;20024;-84
2023/10/10 06:52:27;;;;;;;4.22;2.28;;;17.80;92.20;;;;;;4936489;29;20042;-82
2023/10/10 06:54:56;;;;;;;4.82;2.30;;;17.80;92.20;;;;;;4937064;29;20031;-84
2023/10/10 06:57:45;;;;;;;4.18;2.05;;;17.80;92.20;;;;;;4936996;29;20097;-84
2023/10/10 07:00:20;;;;;;;4.80;2.28;;;17.80;92.20;;;;;;4954382;29;20033;-84
2023/10/10 07:02:50;;;;;;;4.15;2.20;;;17.80;92.20;;;;;;4936900;29;20114;-84
2023/10/10 07:05:18;;;;;;;3.53;2.10;;;17.80;92.20;;;;;;4937078;29;20027;-84
2023/10/10 07:07:45;;;;;;;4.38;2.42;;;17.80;92.20;;;;;;4936977;29;20034;-84
2023/10/10 07:10:24;;;;;;;4.22;2.20;;;17.80;92.20;;;;;;4937022;29;20031;-84
2023/10/10 07:12:49;;;;;;;4.70;2.20;;;17.70;92.20;;;;;;4936806;29;20031;-84
2023/10/10 07:15:15;;;;;;;5.20;2.35;;;17.70;92.20;;;;;;4937122;29;20102;-84
2023/10/10 07:17:40;;;;;;;3.88;2.30;;;17.70;92.20;;;;;;4936808;29;20106;-84
2023/10/10 07:22:35;;;;;;;4.43;2.40;;;17.80;92.20;;;;;;4954121;29;20031;-84
2023/10/10 07:25:07;;;;;;;4.47;2.28;;;17.80;92.20;;;;;;4936994;29;20454;-84
2023/10/10 07:27:35;;;;;;;3.92;2.10;;;17.70;92.20;;;;;;4936953;29;20034;-84
2023/10/10 07:30:08;;;;;;;3.40;2.10;;;17.70;92.20;;;;;;4936973;29;20042;-84
2023/10/10 07:32:38;;;;;;;4.80;2.30;;;17.80;92.20;;;;;;4936650;28;20031;-84
2023/10/10 07:35:05;;;;;;;4.55;2.40;;;17.80;92.20;;;;;;4957674;29;20030;-84
2023/10/10 07:37:31;;;;;;;3.83;2.05;;;17.80;92.20;;;;;;4940262;29;20028;-84
2023/10/10 07:40:19;;;;;;;4.20;2.35;;;17.80;92.20;;;;;;4940365;29;20118;-84
2023/10/10 07:42:50;;;;;;;4.75;2.40;;;17.80;92.10;;;;;;4957312;29;20098;-84
2023/10/10 07:45:28;;;;;;;;;;;17.80;92.10;;;;;;4940728;29;20038;-84
2023/10/10 07:50:26;;;;;;;5.15;2.40;;;17.80;92.10;;;;;;4957656;29;20498;-84
2023/10/10 07:52:55;;;;;;;4.55;2.30;;;17.80;92.10;;;;;;4939715;29;20031;-84
2023/10/10 07:55:32;;;;;;;4.97;2.60;;;17.80;92.10;;;;;;4939880;29;20054;-84
2023/10/10 07:58:01;;;;;;;4.47;2.30;;;17.80;92.20;;;;;;4957136;29;20028;-84
2023/10/10 08:00:38;;;;;;;5.50;3.10;;;17.80;92.40;;;;;;4939957;29;20478;-84
2023/10/10 08:03:07;;;;;;;4.50;2.55;;;17.80;92.20;;;;;;4939693;29;20027;-84
2023/10/10 08:05:33;;;;;;;4.38;2.33;;;17.80;92.20;;;;;;4939809;29;20089;-84
2023/10/10 08:08:05;;;;;;;4.88;2.42;;;17.80;92.20;;;;;;4939960;29;20078;-84
2023/10/10 08:10:39;;;;;;;4.68;2.60;;;17.80;92.20;;;;;;4939946;29;20032;-84
2023/10/10 08:13:10;;;;;;;5.90;3.15;;;17.80;92.20;;;;;;4939657;29;20473;-84
2023/10/10 08:15:48;;;;;;;5.30;2.90;;;17.80;92.20;;;;;;4939764;29;20031;-84
2023/10/10 08:18:22;;;;;;;5.93;2.50;;;17.80;92.20;;;;;;4939463;29;20058;-84
2023/10/10 08:23:12;;;;;;;5.03;2.95;;;17.80;92.20;;;;;;4956853;29;20118;-84
2023/10/10 08:25:38;;;;;;;5.30;2.70;;;17.80;92.20;;;;;;4956696;29;20370;-84
2023/10/10 08:28:04;;;;;;;5.20;2.78;;;17.80;92.30;;;;;;4939507;29;20038;-84
2023/10/10 08:30:29;;;;;;;5.35;2.92;;;17.80;92.30;;;;;;4939605;29;20039;-84
2023/10/10 08:32:59;;;;;;;5.50;2.90;;;17.70;92.20;;;;;;4956307;29;20122;-84
2023/10/10 08:35:29;;;;;;;7.10;3.30;;;17.80;92.30;;;;;;4939425;29;20023;-84
2023/10/10 08:37:56;;;;;;;4.95;2.58;;;17.80;92.30;;;;;;4939209;29;20037;-84
2023/10/10 08:40:21;;;;;;;4.75;2.65;;;17.80;92.20;;;;;;4939190;29;20034;-84
2023/10/10 08:42:50;;;;;;;5.25;2.50;;;17.80;92.20;;;;;;4956031;29;20019;-84
2023/10/10 08:45:23;;;;;;;4.80;2.53;;;17.80;92.30;;;;;;4938433;29;20491;-84
2023/10/10 08:47:50;;;;;;;4.90;2.80;;;17.80;92.10;;;;;;4939255;29;20454;-84
2023/10/10 08:50:17;;;;;;;5.63;2.58;;;17.90;92.10;;;;;;4939149;29;20027;-84
2023/10/10 08:52:43;;;;;;;5.22;2.80;;;17.80;92.10;;;;;;4938769;29;20027;-84
2023/10/10 08:55:10;;;;;;;4.88;2.67;;;17.80;92.20;;;;;;4938559;29;20038;-84
2023/10/10 08:57:38;;;;;;;4.40;2.63;;;17.80;92.20;;;;;;4938817;29;20027;-84
2023/10/10 09:00:11;;;;;;;5.13;2.67;;;17.80;92.20;;;;;;4938836;29;20024;-84
2023/10/10 09:02:37;;;;;;;5.53;2.60;;;17.80;92.20;;;;;;4938648;29;20154;-84
2023/10/10 09:05:12;;;;;;;5.05;2.60;;;17.80;92.20;;;;;;4938824;29;20588;-84
2023/10/10 09:07:42;;;;;;;4.72;2.47;;;17.80;92.20;;;;;;4938713;29;20118;-84
2023/10/10 09:10:14;;;;;;;5.80;3.08;;;17.80;92.20;;;;;;4938955;29;20490;-84
2023/10/10 09:12:56;;;;;;;5.07;2.67;;;17.80;92.20;;;;;;4938305;29;20034;-84
2023/10/10 09:15:23;;;;;;;4.18;2.33;;;17.90;92.20;;;;;;4938666;29;20035;-84
2023/10/10 09:17:49;;;;;;;4.43;2.30;;;17.90;92.20;;;;;;4955590;29;20027;-84
2023/10/10 09:20:32;;;;;;;5.43;2.55;;;17.90;92.10;;;;;;4938350;29;20034;-84
2023/10/10 09:23:04;;;;;;;5.07;2.75;;;17.90;92.10;;;;;;4938331;29;20371;-84
2023/10/10 09:25:44;;;;;;;4.97;2.58;;;17.90;92.10;;;;;;4938437;29;20062;-84
2023/10/10 09:28:15;;;;;;;5.43;2.97;;;17.90;92.10;;;;;;4955738;29;20019;-84
2023/10/10 09:30:58;;;;;;;5.03;2.60;;;17.90;92.00;;;;;;4938308;29;20118;-84
2023/10/10 09:35:58;;;;;;;5.25;2.70;;;17.90;92.00;;;;;;4955686;29;20027;-84
2023/10/10 09:38:33;;;;;;;5.40;2.88;;;18.00;92.00;;;;;;4938219;29;20023;-84
2023/10/10 10:00:32;;;;;;;5.20;2.72;;;18.10;91.80;;;;;;4955399;29;20023;-84
2023/10/10 10:03:00;;;;;;;5.03;2.65;;;18.10;91.80;;;;;;4937506;29;20023;-85
2023/10/10 10:05:28;;;;;;;5.63;3.10;;;18.10;91.80;;;;;;4937813;29;20118;-84
2023/10/10 10:08:06;;;;;;;5.57;2.70;;;18.10;91.80;;;;;;4937847;29;20413;-84
2023/10/10 10:10:35;;;;;;;5.50;2.92;;;18.20;91.80;;;;;;4937653;29;20023;-84
2023/10/10 10:13:13;;;;;;;5.50;2.88;;;18.10;91.80;;;;;;4937357;29;20023;-84
2023/10/10 10:15:56;;;;;;;5.53;3.00;;;18.10;91.80;;;;;;4937623;29;20118;-84
2023/10/10 10:18:29;;;;;;;6.05;3.05;;;18.20;91.80;;;;;;4937318;29;20126;-84
2023/10/10 10:23:34;;;;;;;5.60;2.78;;;18.10;91.80;;;;;;4954737;29;20023;-84
2023/10/10 10:26:08;;;;;;;6.07;3.28;;;18.10;91.90;;;;;;4937374;29;20020;-84
2023/10/10 10:28:37;;;;;;;5.63;2.88;;;18.20;91.90;;;;;;4954661;29;20031;-84
2023/10/10 10:31:27;;;;;;;5.38;2.88;;;18.10;91.90;;;;;;4954369;29;20504;-84
2023/10/10 10:34:05;;;;;;;5.72;2.75;;;18.10;91.90;;;;;;4937241;29;20063;-85
2023/10/10 10:36:42;;;;;;;5.65;2.88;;;18.10;91.90;;;;;;4937398;29;20118;-84
2023/10/10 10:39:19;;;;;;;6.35;3.05;;;18.20;91.90;;;;;;4937253;29;20031;-84
2023/10/10 10:41:51;;;;;;;7.00;3.05;;;18.20;91.90;;;;;;4937219;29;20023;-84
2023/10/10 10:44:46;;;;;;;5.30;2.50;;;18.20;91.90;;;;;;4937295;29;20493;-84
2023/10/10 10:47:34;;;;;;;6.30;3.20;;;18.20;91.80;;;;;;4937216;29;20051;-84
2023/10/10 10:50:04;;;;;;;5.57;3.03;;;18.30;91.70;;;;;;4928198;29;20027;-84
2023/10/10 10:52:47;;;;;;;5.32;2.83;;;18.30;91.70;;;;;;4936879;29;20027;-84
2023/10/10 10:55:22;;;;;;;6.05;3.22;;;18.30;91.70;;;;;;4936832;29;20062;-84
2023/10/10 11:01:00;;;;;;;4.53;2.58;;;18.30;91.70;;;;;;4954395;29;20161;-84
2023/10/10 11:03:36;;;;;;;5.95;3.00;;;18.30;91.70;;;;;;4954020;29;20027;-84
2023/10/10 11:06:09;;;;;;;6.55;3.10;;;18.20;91.80;;;;;;4937065;29;20042;-84
2023/10/10 11:11:36;;;;;;;6.22;3.20;;;18.20;91.80;;;;;;4958311;29;20028;-84
2023/10/10 11:14:05;;;;;;;6.00;3.20;;;18.20;91.80;;;;;;4940647;29;20078;-84
2023/10/10 11:16:37;;;;;;;5.57;2.90;;;18.20;91.80;;;;;;4940715;29;20023;-84
2023/10/10 11:19:12;;;;;;;;;;;18.20;91.80;;;;;;4958243;29;20561;-84
2023/10/10 11:21:48;;;;;;;6.55;3.35;;;18.20;91.80;;;;;;4940824;29;19986;-84
2023/10/10 11:24:25;;;;;;;6.20;3.10;;;18.20;91.90;;;;;;4940492;29;20027;-84
2023/10/10 11:30:00;;;;;;;5.60;3.00;;;18.20;91.90;;;;;;4958040;29;20031;-84
2023/10/10 11:32:29;;;;;;;5.25;2.92;;;18.20;91.90;;;;;;4940293;29;20066;-84
2023/10/10 11:37:47;;;;;;;5.75;2.97;;;18.20;91.90;;;;;;4958700;29;20023;-85
2023/10/10 11:40:19;;;;;;;6.05;3.13;;;18.20;91.90;;;;;;4940384;29;20046;-84
2023/10/10 11:42:47;;;;;;;6.28;3.13;;;18.20;91.90;;;;;;4940150;29;20028;-84
2023/10/10 11:45:19;;;;;;;5.95;3.20;;;18.20;91.90;;;;;;4940221;29;20034;-84
2023/10/10 11:47:47;;;;;;;5.70;3.13;;;18.20;91.90;;;;;;4940311;29;20034;-84
2023/10/10 11:50:15;;;;;;;6.30;3.30;;;18.30;91.90;;;;;;4940141;29;20031;-84
2023/10/10 11:52:53;;;;;;;5.57;2.80;;;18.30;91.80;;;;;;4957079;29;20058;-84
2023/10/10 11:55:20;;;;;;;6.03;2.85;;;18.30;91.80;;;;;;4957740;29;20493;-84
2023/10/10 11:58:06;;;;;;;6.15;3.20;;;18.30;91.80;;;;;;4941440;29;20099;-84
2023/10/10 12:00:44;;;;;;;5.55;3.08;;;18.30;91.70;;;;;;4940125;29;20114;-84
2023/10/10 12:03:31;;;;;;;5.15;2.97;;;18.30;91.70;;;;;;4943092;28;20473;-85
2023/10/10 12:05:59;;;;;;;5.47;2.83;;;18.30;91.80;;;;;;4976401;28;20523;-84
2023/10/10 12:08:24;;;;;;;5.55;3.00;;;18.20;91.80;;;;;;4976377;28;20392;-84
2023/10/10 12:11:12;;;;;;;6.20;3.22;;;18.20;91.80;;;;;;4959075;28;20029;-84
2023/10/10 12:13:37;;;;;;;5.65;2.90;;;18.20;91.80;;;;;;4958706;28;20027;-84
2023/10/10 12:16:07;;;;;;;5.75;2.90;;;18.20;91.80;;;;;;4976171;28;20038;-84
2023/10/10 12:18:34;;;;;;;5.70;3.00;;;18.20;91.90;;;;;;4958468;28;20037;-84
2023/10/10 12:21:01;;;;;;;5.72;3.03;;;18.20;91.90;;;;;;4957716;28;20157;-84
2023/10/10 12:23:27;;;;;;;5.63;3.13;;;18.20;91.90;;;;;;4958617;28;20027;-84
2023/10/10 12:25:54;;;;;;;6.15;3.08;;;18.20;91.90;;;;;;4958778;28;20023;-84
2023/10/10 12:28:20;;;;;;;5.90;2.97;;;18.20;91.90;;;;;;4976007;28;20026;-84
2023/10/10 12:30:45;;;;;;;6.10;3.17;;;18.20;91.90;;;;;;4958672;28;20023;-84
2023/10/10 12:33:19;;;;;;;5.72;3.17;;;18.20;91.90;;;;;;4958344;28;20026;-84
2023/10/10 12:35:49;;;;;;;5.05;2.63;;;18.20;91.90;;;;;;4975904;28;20511;-84
2023/10/10 12:38:15;;;;;;;5.22;3.00;;;18.20;91.90;;;;;;4958491;28;20029;-84
2023/10/10 12:40:44;;;;;;;5.30;3.08;;;18.20;91.90;;;;;;4958591;28;20078;-84
2023/10/10 12:43:13;;;;;;;5.43;3.15;;;18.20;91.90;;;;;;4958063;28;20113;-84
2023/10/10 12:45:38;;;;;;;6.57;3.25;;;18.20;91.90;;;;;;4975557;28;20500;-84
2023/10/10 12:48:13;;;;;;;5.22;2.80;;;18.20;91.90;;;;;;4958404;28;20075;-84
2023/10/10 12:50:40;;;;;;;6.40;3.33;;;18.20;91.90;;;;;;4958220;28;20489;-84
2023/10/10 12:53:09;;;;;;;5.88;2.90;;;18.20;91.80;;;;;;4975284;28;20031;-85
2023/10/10 12:55:36;;;;;;;5.72;3.03;;;18.30;91.80;;;;;;4975261;28;20023;-83
2023/10/10 12:58:09;;;;;;;5.50;2.90;;;18.30;91.70;;;;;;4975316;28;20481;-84
2023/10/10 13:00:36;;;;;;;6.32;3.38;;;18.30;91.70;;;;;;4975476;28;20428;-84
2023/10/10 13:03:01;;;;;;;4.72;2.58;;;18.30;91.70;;;;;;4957793;28;20027;-84
2023/10/10 13:05:27;;;;;;;6.13;3.10;;;18.30;91.70;;;;;;4975212;28;20035;-84
2023/10/10 13:07:55;;;;;;;4.93;2.50;;;18.30;91.70;;;;;;4957953;28;20548;-84
2023/10/10 13:10:26;;;;;;;5.53;2.83;;;18.20;91.70;;;;;;4957846;28;20043;-84
2023/10/10 13:12:52;;;;;;;5.15;2.85;;;18.30;91.80;;;;;;4957703;28;20117;-84
2023/10/10 13:15:18;;;;;;;5.63;2.88;;;18.20;91.80;;;;;;4957800;28;20077;-84
2023/10/10 13:17:52;;;;;;;4.82;2.78;;;18.30;91.80;;;;;;4957819;28;20059;-85
2023/10/10 13:20:18;;;;;;;4.93;2.60;;;18.20;91.80;;;;;;4975086;28;20015;-84
2023/10/10 13:22:48;;;;;;;5.38;2.70;;;18.20;91.80;;;;;;4957468;28;20026;-84
2023/10/10 13:25:14;;;;;;;5.05;2.92;;;18.20;91.80;;;;;;4957744;28;20024;-84
2023/10/10 13:27:39;;;;;;;5.20;2.92;;;18.20;91.90;;;;;;4957566;28;20030;-84
2023/10/10 13:30:05;;;;;;;5.30;3.00;;;18.30;91.90;;;;;;4957473;28;20027;-84
2023/10/10 13:32:31;;;;;;;11.65;3.97;;;18.20;91.80;;;;;;4957175;28;20508;-84
2023/10/10 13:34:57;;;;;;;24.27;4.45;;;18.30;91.90;;;;;;4974900;28;20035;-84
2023/10/10 13:37:23;;;;;;;9.45;3.40;;;18.30;91.90;;;;;;4951062;29;20408;-83
2023/10/10 13:39:48;;;;;;;11.65;3.58;;;18.30;91.90;;;;;;4938031;29;20025;-84
2023/10/10 13:42:14;;;;;;;11.45;3.95;;;18.30;92.00;;;;;;4937979;29;20030;-84
2023/10/10 13:44:40;;;;;;;10.52;3.88;;;18.30;91.90;;;;;;4938136;29;20042;-86
2023/10/10 13:47:07;;;;;;;12.25;3.65;;;18.30;91.90;;;;;;4938141;29;20055;-84
2023/10/10 13:49:34;;;;;;;12.00;4.18;;;18.30;91.90;;;;;;4938248;29;20115;-86
2023/10/10 13:52:04;;;;;;;13.15;4.00;;;18.30;91.90;;;;;;4938312;29;20027;-85
2023/10/10 13:54:29;;;;;;;10.68;3.83;;;18.30;91.80;;;;;;4937935;29;20027;-86
2023/10/10 13:56:55;;;;;;;10.60;3.60;;;18.30;91.80;;;;;;4970013;28;20049;-86
2023/10/10 13:59:21;;;;;;;11.65;3.80;;;18.30;91.70;;;;;;4957072;28;20117;-85
2023/10/10 14:01:47;;;;;;;8.07;3.22;;;18.30;91.70;;;;;;4957114;28;20031;-85
2023/10/10 14:04:23;;;;;;;7.30;3.60;;;18.30;91.80;;;;;;4957008;28;20042;-85
2023/10/10 14:06:50;;;;;;;10.48;3.47;;;18.30;91.80;;;;;;4957040;28;20033;-85
2023/10/10 14:09:22;;;;;;;7.15;3.10;;;18.30;91.80;;;;;;4957110;28;20023;-84
2023/10/10 14:12:02;;;;;;;9.15;3.47;;;18.30;91.80;;;;;;4956998;28;20031;-84
2023/10/10 14:14:28;;;;;;;8.07;3.55;;;18.30;91.80;;;;;;4956927;28;20446;-84
2023/10/10 14:16:54;;;;;;;7.75;3.55;;;18.30;91.80;;;;;;4957048;28;20121;-84
2023/10/10 14:19:25;;;;;;;8.25;3.25;;;18.30;91.80;;;;;;4956903;28;20118;-84
2023/10/10 14:21:54;;;;;;;;;;;18.30;91.90;;;;;;4974627;28;20039;-83
2023/10/10 14:24:20;;;;;;;8.35;3.45;;;18.20;91.90;;;;;;4956852;28;20279;-83
2023/10/10 14:26:48;;;;;;;8.73;3.53;;;18.20;91.90;;;;;;4956915;28;20033;-83
2023/10/10 14:29:14;;;;;;;6.63;3.10;;;18.20;91.90;;;;;;4956857;28;20038;-83
2023/10/10 14:31:44;;;;;;;7.50;3.30;;;18.20;91.90;;;;;;4957002;28;20397;-84
2023/10/10 14:34:19;;;;;;;9.40;3.85;;;18.20;91.90;;;;;;4956829;28;20027;-84
2023/10/10 14:36:45;;;;;;;7.07;3.30;;;18.20;91.90;;;;;;4956917;28;20034;-83
2023/10/10 14:39:28;;;;;;;9.13;2.85;;;18.20;91.90;;;;;;4956304;28;20023;-88
2023/10/10 14:41:57;;;;;;;7.15;2.97;;;18.20;91.90;;;;;;4956470;28;20393;-83
2023/10/10 14:44:23;;;;;;;7.85;3.03;;;18.20;91.90;;;;;;4955617;28;20055;-83
2023/10/10 14:46:51;;;;;;;6.97;2.97;;;18.20;92.00;;;;;;4956497;28;20038;-83
2023/10/10 14:49:28;;;;;;;6.03;2.83;;;18.20;92.00;;;;;;4956250;28;20496;-83
2023/10/10 14:52:03;;;;;;;6.90;2.95;;;18.20;92.00;;;;;;4956445;28;20038;-83
2023/10/10 14:54:29;;;;;;;5.93;2.60;;;18.20;91.90;;;;;;4956267;28;20507;-83
2023/10/10 14:56:54;;;;;;;6.35;2.78;;;18.20;91.90;;;;;;4956238;28;20027;-83
2023/10/10 14:59:25;;;;;;;6.65;3.00;;;18.20;91.90;;;;;;4956146;28;20426;-87
2023/10/10 15:01:52;;;;;;;7.80;2.75;;;18.30;91.80;;;;;;4947937;28;20019;-87
2023/10/10 15:04:20;;;;;;;6.88;2.80;;;18.30;91.80;;;;;;4955984;28;20531;-88
2023/10/10 15:06:47;;;;;;;7.05;3.15;;;18.30;91.80;;;;;;4956133;28;20558;-88
2023/10/10 15:09:14;;;;;;;7.47;3.03;;;18.20;91.80;;;;;;4956130;28;20514;-87
2023/10/10 15:11:44;;;;;;;7.53;2.80;;;18.20;91.80;;;;;;4956270;28;20026;-87
2023/10/10 15:14:10;;;;;;;5.35;2.60;;;18.20;91.90;;;;;;4955906;28;20026;-88
2023/10/10 15:16:37;;;;;;;6.95;2.95;;;18.20;91.90;;;;;;4956093;28;20033;-87
2023/10/10 15:19:06;;;;;;;6.38;2.80;;;18.20;91.90;;;;;;4954586;28;20080;-87
2023/10/10 15:21:35;;;;;;;5.85;2.78;;;18.20;91.90;;;;;;4956180;28;20029;-88
2023/10/10 15:24:09;;;;;;;7.63;2.80;;;18.20;91.90;;;;;;4955912;28;20437;-87
2023/10/10 15:26:34;;;;;;;6.00;2.72;;;18.20;91.90;;;;;;4967362;28;20098;-86
2023/10/10 15:29:00;;;;;;;5.75;3.00;;;18.20;92.00;;;;;;4937231;29;20062;-88
2023/10/10 15:31:30;;;;;;;6.20;2.78;;;18.20;92.00;;;;;;4937186;29;20516;-87
2023/10/10 15:33:57;;;;;;;5.85;2.80;;;18.10;91.90;;;;;;4953771;28;20027;-88
2023/10/10 15:36:23;;;;;;;5.82;2.78;;;18.20;92.00;;;;;;4936836;29;20027;-86
2023/10/10 15:38:49;;;;;;;7.65;2.95;;;18.20;92.00;;;;;;4953948;28;20038;-86
2023/10/10 15:41:20;;;;;;;5.80;2.83;;;18.10;92.00;;;;;;4936738;29;20023;-87
2023/10/10 15:43:49;;;;;;;5.35;2.55;;;18.10;92.00;;;;;;4953664;29;20019;-87
2023/10/10 15:46:16;;;;;;;4.97;2.63;;;18.10;92.00;;;;;;4953849;29;20508;-87
2023/10/10 15:48:48;;;;;;;6.70;2.60;;;18.20;92.10;;;;;;4936777;29;20031;-87
2023/10/10 15:51:15;;;;;;;5.47;2.47;;;18.10;92.00;;;;;;4936870;29;20556;-87
2023/10/10 15:53:42;;;;;;;5.80;2.60;;;18.10;92.00;;;;;;4936319;28;20059;-87
2023/10/10 15:56:11;;;;;;;5.40;2.35;;;18.20;92.10;;;;;;4939967;29;20027;-87
2023/10/10 15:58:43;;;;;;;5.43;2.40;;;18.10;92.00;;;;;;4939893;29;20031;-86
2023/10/10 16:01:09;;;;;;;;;;;18.20;92.00;;;;;;4940370;29;20027;-86